sensor_id;sensor_type;location;lat;lon;timestamp;pressure;altitude;pressure_sealevel;temperature;humidity
57572;BME280;44459;43.522;24.470;2023-03-07T00:00:12;99457.78;;;3.63;80.92
57572;BME280;44459;43.522;24.470;2023-03-07T00:02:38;99459.63;;;3.67;80.66
57572;BME280;44459;43.522;24.470;2023-03-07T00:05:04;99462.25;;;3.69;80.82
57572;BME280;44459;43.522;24.470;2023-03-07T00:07:29;99458.75;;;3.68;80.89
57572;BME280;44459;43.522;24.470;2023-03-07T00:09:56;99459.63;;;3.67;81.46
57572;BME280;44459;43.522;24.470;2023-03-07T00:12:22;99455.19;;;3.65;81.62
57572;BME280;44459;43.522;24.470;2023-03-07T00:14:48;99454.25;;;3.61;81.50
57572;BME280;44459;43.522;24.470;2023-03-07T00:17:13;99451.69;;;3.63;81.49
57572;BME280;44459;43.522;24.470;2023-03-07T00:19:43;99444.63;;;3.59;81.99
57572;BME280;44459;43.522;24.470;2023-03-07T00:22:09;99452.47;;;3.59;82.13
57572;BME280;44459;43.522;24.470;2023-03-07T00:24:35;99442.81;;;3.54;82.70
57572;BME280;44459;43.522;24.470;2023-03-07T00:27:01;99440.13;;;3.50;82.70
57572;BME280;44459;43.522;24.470;2023-03-07T00:29:26;99446.22;;;3.50;83.25
57572;BME280;44459;43.522;24.470;2023-03-07T00:31:52;99433.13;;;3.49;83.37
57572;BME280;44459;43.522;24.470;2023-03-07T00:34:17;99427.91;;;3.49;82.81
57572;BME280;44459;43.522;24.470;2023-03-07T00:36:43;99426.19;;;3.51;82.67
57572;BME280;44459;43.522;24.470;2023-03-07T00:39:08;99425.38;;;3.52;82.93
57572;BME280;44459;43.522;24.470;2023-03-07T00:41:33;99415.75;;;3.51;82.92
57572;BME280;44459;43.522;24.470;2023-03-07T00:43:59;99420.13;;;3.50;82.47
57572;BME280;44459;43.522;24.470;2023-03-07T00:46:25;99413.75;;;3.38;84.57
57572;BME280;44459;43.522;24.470;2023-03-07T00:48:51;99423.34;;;3.39;84.92
57572;BME280;44459;43.522;24.470;2023-03-07T00:51:18;99415.72;;;3.48;84.62
57572;BME280;44459;43.522;24.470;2023-03-07T00:53:44;99424.53;;;3.53;83.47
57572;BME280;44459;43.522;24.470;2023-03-07T00:56:18;99405.53;;;3.60;83.36
57572;BME280;44459;43.522;24.470;2023-03-07T00:58:45;99398.56;;;3.59;83.33
57572;BME280;44459;43.522;24.470;2023-03-07T01:01:13;99409.97;;;3.64;83.02
57572;BME280;44459;43.522;24.470;2023-03-07T01:03:39;99396.94;;;3.66;83.44
57572;BME280;44459;43.522;24.470;2023-03-07T01:06:08;99397.88;;;3.69;84.00
57572;BME280;44459;43.522;24.470;2023-03-07T01:08:34;99391.81;;;3.70;84.03
57572;BME280;44459;43.522;24.470;2023-03-07T01:11:01;99391.00;;;3.73;83.92
57572;BME280;44459;43.522;24.470;2023-03-07T01:13:29;99398.00;;;3.75;83.85
57572;BME280;44459;43.522;24.470;2023-03-07T01:15:55;99391.97;;;3.78;83.94
57572;BME280;44459;43.522;24.470;2023-03-07T01:18:21;99386.75;;;3.78;84.27
57572;BME280;44459;43.522;24.470;2023-03-07T01:20:46;99391.09;;;3.79;84.49
57572;BME280;44459;43.522;24.470;2023-03-07T01:23:11;99380.66;;;3.79;84.63
57572;BME280;44459;43.522;24.470;2023-03-07T01:25:41;99384.19;;;3.81;84.72
57572;BME280;44459;43.522;24.470;2023-03-07T01:28:09;99381.59;;;3.82;84.19
57572;BME280;44459;43.522;24.470;2023-03-07T01:30:36;99376.38;;;3.82;84.57
57572;BME280;44459;43.522;24.470;2023-03-07T01:33:02;99372.13;;;3.87;84.68
57572;BME280;44459;43.522;24.470;2023-03-07T01:35:28;99372.97;;;3.86;84.71
57572;BME280;44459;43.522;24.470;2023-03-07T01:37:54;99378.19;;;3.86;84.87
57572;BME280;44459;43.522;24.470;2023-03-07T01:40:21;99369.53;;;3.87;84.17
57572;BME280;44459;43.522;24.470;2023-03-07T01:42:47;99371.41;;;3.96;83.25
57572;BME280;44459;43.522;24.470;2023-03-07T01:47:41;99371.56;;;4.03;83.40
57572;BME280;44459;43.522;24.470;2023-03-07T01:50:12;99375.97;;;4.06;83.25
57572;BME280;44459;43.522;24.470;2023-03-07T01:52:53;99371.56;;;4.03;82.93
57572;BME280;44459;43.522;24.470;2023-03-07T01:55:23;99376.78;;;4.03;83.34
57572;BME280;44459;43.522;24.470;2023-03-07T01:57:51;99381.13;;;4.03;82.95
57572;BME280;44459;43.522;24.470;2023-03-07T02:00:20;99378.56;;;4.04;82.92
57572;BME280;44459;43.522;24.470;2023-03-07T02:05:46;99381.06;;;4.00;82.87
57572;BME280;44459;43.522;24.470;2023-03-07T02:08:13;99377.53;;;3.96;83.50
57572;BME280;44459;43.522;24.470;2023-03-07T02:10:40;99380.19;;;3.99;83.46
57572;BME280;44459;43.522;24.470;2023-03-07T02:13:07;99380.19;;;3.99;83.57
57572;BME280;44459;43.522;24.470;2023-03-07T02:15:34;99383.72;;;4.03;84.01
57572;BME280;44459;43.522;24.470;2023-03-07T02:18:00;99380.38;;;4.09;84.74
57572;BME280;44459;43.522;24.470;2023-03-07T02:25:55;99386.78;;;4.27;85.22
57572;BME280;44459;43.522;24.470;2023-03-07T02:28:22;99379.13;;;4.36;84.06
57572;BME280;44459;43.522;24.470;2023-03-07T02:30:56;99398.38;;;4.44;84.13
57572;BME280;44459;43.522;24.470;2023-03-07T02:33:22;99391.53;;;4.49;84.09
57572;BME280;44459;43.522;24.470;2023-03-07T02:35:56;99392.41;;;4.51;84.15
57572;BME280;44459;43.522;24.470;2023-03-07T02:38:23;99395.16;;;4.57;84.19
57572;BME280;44459;43.522;24.470;2023-03-07T02:40:50;99396.03;;;4.60;83.65
57572;BME280;44459;43.522;24.470;2023-03-07T02:43:17;99393.47;;;4.61;83.65
57572;BME280;44459;43.522;24.470;2023-03-07T02:45:43;99387.41;;;4.65;83.62
57572;BME280;44459;43.522;24.470;2023-03-07T02:48:08;99390.94;;;4.69;83.37
57572;BME280;44459;43.522;24.470;2023-03-07T02:50:34;99397.97;;;4.71;83.31
57572;BME280;44459;43.522;24.470;2023-03-07T02:52:59;99387.56;;;4.74;83.45
57572;BME280;44459;43.522;24.470;2023-03-07T02:55:25;99385.84;;;4.75;84.28
57572;BME280;44459;43.522;24.470;2023-03-07T02:57:50;99379.78;;;4.77;85.19
57572;BME280;44459;43.522;24.470;2023-03-07T03:00:18;99376.28;;;4.75;84.82
57572;BME280;44459;43.522;24.470;2023-03-07T03:02:43;99386.75;;;4.78;84.97
57572;BME280;44459;43.522;24.470;2023-03-07T03:05:09;99378.94;;;4.80;84.77
57572;BME280;44459;43.522;24.470;2023-03-07T03:07:34;99385.97;;;4.84;84.67
57572;BME280;44459;43.522;24.470;2023-03-07T03:10:00;99377.28;;;4.85;84.02
57572;BME280;44459;43.522;24.470;2023-03-07T03:12:25;99363.34;;;4.86;84.32
57572;BME280;44459;43.522;24.470;2023-03-07T03:14:50;99372.09;;;4.88;84.76
57572;BME280;44459;43.522;24.470;2023-03-07T03:17:16;99379.97;;;4.89;84.37
57572;BME280;44459;43.522;24.470;2023-03-07T03:19:41;99380.94;;;4.96;83.89
57572;BME280;44459;43.522;24.470;2023-03-07T03:22:07;99372.25;;;4.98;83.72
57572;BME280;44459;43.522;24.470;2023-03-07T03:24:32;99371.41;;;4.99;83.99
57572;BME280;44459;43.522;24.470;2023-03-07T03:26:58;99367.91;;;5.00;84.59
57572;BME280;44459;43.522;24.470;2023-03-07T03:29:24;99371.44;;;5.02;84.37
57572;BME280;44459;43.522;24.470;2023-03-07T03:31:52;99367.09;;;5.03;84.22
57572;BME280;44459;43.522;24.470;2023-03-07T03:34:17;99367.84;;;4.96;83.97
57572;BME280;44459;43.522;24.470;2023-03-07T03:36:44;99367.03;;;5.00;84.26
57572;BME280;44459;43.522;24.470;2023-03-07T03:39:09;99363.59;;;5.02;84.22
57572;BME280;44459;43.522;24.470;2023-03-07T03:41:36;99370.59;;;5.05;84.12
57572;BME280;44459;43.522;24.470;2023-03-07T03:44:01;99380.22;;;5.07;83.88
57572;BME280;44459;43.522;24.470;2023-03-07T03:46:27;99381.94;;;5.05;84.20
57572;BME280;44459;43.522;24.470;2023-03-07T03:48:53;99381.94;;;5.05;84.37
57572;BME280;44459;43.522;24.470;2023-03-07T03:51:19;99386.25;;;5.03;84.46
57572;BME280;44459;43.522;24.470;2023-03-07T03:53:45;99378.41;;;5.02;84.85
57572;BME280;44459;43.522;24.470;2023-03-07T03:56:19;99386.25;;;5.02;85.02
57572;BME280;44459;43.522;24.470;2023-03-07T03:58:55;99375.75;;;5.00;84.68
57572;BME280;44459;43.522;24.470;2023-03-07T04:01:24;99381.84;;;4.99;84.84
57572;BME280;44459;43.522;24.470;2023-03-07T04:03:51;99379.16;;;4.96;85.04
57572;BME280;44459;43.522;24.470;2023-03-07T04:06:22;99373.00;;;4.91;85.00
57572;BME280;44459;43.522;24.470;2023-03-07T04:08:48;99379.91;;;4.86;84.97
57572;BME280;44459;43.522;24.470;2023-03-07T04:11:14;99383.38;;;4.85;84.94
57572;BME280;44459;43.522;24.470;2023-03-07T04:13:40;99375.44;;;4.78;84.97
57572;BME280;44459;43.522;24.470;2023-03-07T04:16:06;99373.56;;;4.72;85.65
57572;BME280;44459;43.522;24.470;2023-03-07T04:18:33;99379.66;;;4.68;86.16
57572;BME280;44459;43.522;24.470;2023-03-07T04:20:59;99380.41;;;4.63;86.73
57572;BME280;44459;43.522;24.470;2023-03-07T04:23:24;99372.56;;;4.61;86.54
57572;BME280;44459;43.522;24.470;2023-03-07T04:25:52;99383.84;;;4.60;86.20
57572;BME280;44459;43.522;24.470;2023-03-07T04:28:27;99370.75;;;4.57;86.38
57572;BME280;44459;43.522;24.470;2023-03-07T04:30:53;99377.66;;;4.55;86.38
57572;BME280;44459;43.522;24.470;2023-03-07T04:33:20;99382.81;;;4.49;86.37
57572;BME280;44459;43.522;24.470;2023-03-07T04:35:46;99382.75;;;4.46;86.36
57572;BME280;44459;43.522;24.470;2023-03-07T04:38:12;99379.16;;;4.41;86.44
57572;BME280;44459;43.522;24.470;2023-03-07T04:40:38;99391.25;;;4.33;86.05
57572;BME280;44459;43.522;24.470;2023-03-07T04:43:04;99385.94;;;4.27;86.11
57572;BME280;44459;43.522;24.470;2023-03-07T04:45:34;99384.84;;;4.17;86.45
57572;BME280;44459;43.522;24.470;2023-03-07T04:48:01;99389.09;;;4.11;86.67
57572;BME280;44459;43.522;24.470;2023-03-07T04:50:27;99385.50;;;4.02;87.13
57572;BME280;44459;43.522;24.470;2023-03-07T04:52:52;99389.63;;;3.93;87.61
57572;BME280;44459;43.522;24.470;2023-03-07T04:55:18;99395.53;;;3.81;87.94
57572;BME280;44459;43.522;24.470;2023-03-07T04:57:43;99392.88;;;3.78;87.92
57572;BME280;44459;43.522;24.470;2023-03-07T05:00:09;99391.88;;;3.73;87.93
57572;BME280;44459;43.522;24.470;2023-03-07T05:02:35;99406.56;;;3.68;88.09
57572;BME280;44459;43.522;24.470;2023-03-07T05:05:01;99407.28;;;3.61;87.89
57572;BME280;44459;43.522;24.470;2023-03-07T05:07:27;99408.88;;;3.54;89.96
57572;BME280;44459;43.522;24.470;2023-03-07T05:09:54;99405.44;;;3.55;90.45
57572;BME280;44459;43.522;24.470;2023-03-07T05:12:19;99408.03;;;3.55;90.84
57572;BME280;44459;43.522;24.470;2023-03-07T05:14:45;99414.69;;;3.41;92.57
57572;BME280;44459;43.522;24.470;2023-03-07T05:17:10;99412.19;;;3.46;92.01
57572;BME280;44459;43.522;24.470;2023-03-07T05:19:36;99409.53;;;3.43;92.46
57572;BME280;44459;43.522;24.470;2023-03-07T05:22:01;99405.81;;;3.33;94.56
57572;BME280;44459;43.522;24.470;2023-03-07T05:24:27;99412.94;;;3.40;94.62
57572;BME280;44459;43.522;24.470;2023-03-07T05:26:53;99406.16;;;3.48;93.88
57572;BME280;44459;43.522;24.470;2023-03-07T05:29:18;99413.25;;;3.55;93.62
57572;BME280;44459;43.522;24.470;2023-03-07T05:31:44;99416.81;;;3.59;92.95
57572;BME280;44459;43.522;24.470;2023-03-07T05:34:09;99422.16;;;3.65;92.84
57572;BME280;44459;43.522;24.470;2023-03-07T05:36:35;99417.81;;;3.66;92.80
57572;BME280;44459;43.522;24.470;2023-03-07T05:39:00;99424.81;;;3.68;92.62
57572;BME280;44459;43.522;24.470;2023-03-07T05:41:26;99422.22;;;3.68;92.76
57572;BME280;44459;43.522;24.470;2023-03-07T05:43:51;99423.09;;;3.67;93.42
57572;BME280;44459;43.522;24.470;2023-03-07T05:46:18;99420.53;;;3.70;93.96
57572;BME280;44459;43.522;24.470;2023-03-07T05:48:44;99424.69;;;3.62;95.42
57572;BME280;44459;43.522;24.470;2023-03-07T05:51:10;99432.81;;;3.76;95.71
57572;BME280;44459;43.522;24.470;2023-03-07T05:53:35;99427.81;;;3.86;96.04
57572;BME280;44459;43.522;24.470;2023-03-07T05:56:01;99429.94;;;4.05;94.99
57572;BME280;44459;43.522;24.470;2023-03-07T05:58:26;99432.34;;;4.43;93.53
57572;BME280;44459;43.522;24.470;2023-03-07T06:00:52;99436.78;;;5.01;91.38
57572;BME280;44459;43.522;24.470;2023-03-07T06:03:17;99435.81;;;5.54;88.46
57572;BME280;44459;43.522;24.470;2023-03-07T06:05:42;99435.63;;;6.08;86.10
57572;BME280;44459;43.522;24.470;2023-03-07T06:08:08;99433.34;;;6.40;83.67
57572;BME280;44459;43.522;24.470;2023-03-07T06:10:33;99429.19;;;6.65;81.85
57572;BME280;44459;43.522;24.470;2023-03-07T06:12:59;99432.09;;;7.01;80.07
57572;BME280;44459;43.522;24.470;2023-03-07T06:15:24;99431.41;;;7.27;78.58
57572;BME280;44459;43.522;24.470;2023-03-07T06:17:50;99441.19;;;7.55;76.25
57572;BME280;44459;43.522;24.470;2023-03-07T06:20:17;99446.56;;;7.79;75.01
57572;BME280;44459;43.522;24.470;2023-03-07T06:22:45;99442.31;;;8.07;73.91
57572;BME280;44459;43.522;24.470;2023-03-07T06:25:11;99448.59;;;8.59;72.37
57572;BME280;44459;43.522;24.470;2023-03-07T06:27:37;99437.22;;;9.08;70.60
57572;BME280;44459;43.522;24.470;2023-03-07T06:30:04;99437.09;;;9.63;68.79
57572;BME280;44459;43.522;24.470;2023-03-07T06:32:31;99444.81;;;10.07;65.62
57572;BME280;44459;43.522;24.470;2023-03-07T06:34:57;99440.31;;;10.35;64.13
57572;BME280;44459;43.522;24.470;2023-03-07T06:37:23;99441.66;;;10.96;63.63
57572;BME280;44459;43.522;24.470;2023-03-07T06:39:48;99443.56;;;11.68;61.43
57572;BME280;44459;43.522;24.470;2023-03-07T06:42:14;99447.06;;;12.43;58.58
57572;BME280;44459;43.522;24.470;2023-03-07T06:44:39;99453.88;;;13.19;56.94
57572;BME280;44459;43.522;24.470;2023-03-07T06:47:04;99450.78;;;13.89;54.97
57572;BME280;44459;43.522;24.470;2023-03-07T06:49:30;99450.16;;;14.60;53.08
57572;BME280;44459;43.522;24.470;2023-03-07T06:51:55;99449.63;;;15.20;51.24
57572;BME280;44459;43.522;24.470;2023-03-07T06:54:24;99446.31;;;15.78;48.18
57572;BME280;44459;43.522;24.470;2023-03-07T06:56:49;99446.91;;;16.20;47.59
57572;BME280;44459;43.522;24.470;2023-03-07T06:59:16;99448.63;;;16.50;46.90
57572;BME280;44459;43.522;24.470;2023-03-07T07:01:41;99448.69;;;16.78;45.94
57572;BME280;44459;43.522;24.470;2023-03-07T07:04:06;99452.63;;;17.47;45.37
57572;BME280;44459;43.522;24.470;2023-03-07T07:06:32;99453.06;;;18.09;43.65
57572;BME280;44459;43.522;24.470;2023-03-07T07:08:58;99438.63;;;18.61;42.71
57572;BME280;44459;43.522;24.470;2023-03-07T07:11:24;99447.38;;;19.09;41.25
57572;BME280;44459;43.522;24.470;2023-03-07T07:13:50;99449.38;;;19.26;40.72
57572;BME280;44459;43.522;24.470;2023-03-07T07:16:16;99450.03;;;19.73;40.78
57572;BME280;44459;43.522;24.470;2023-03-07T07:18:43;99453.78;;;20.30;39.39
57572;BME280;44459;43.522;24.470;2023-03-07T07:21:09;99456.56;;;20.27;39.00
57572;BME280;44459;43.522;24.470;2023-03-07T07:23:34;99458.53;;;20.23;39.78
57572;BME280;44459;43.522;24.470;2023-03-07T07:26:00;99451.34;;;20.44;39.37
57572;BME280;44459;43.522;24.470;2023-03-07T07:28:26;99451.84;;;20.89;38.75
57572;BME280;44459;43.522;24.470;2023-03-07T07:30:51;99453.56;;;21.45;37.57
57572;BME280;44459;43.522;24.470;2023-03-07T07:33:16;99440.28;;;21.59;36.82
57572;BME280;44459;43.522;24.470;2023-03-07T07:35:42;99447.66;;;22.07;36.52
57572;BME280;44459;43.522;24.470;2023-03-07T07:38:08;99447.63;;;22.40;35.87
57572;BME280;44459;43.522;24.470;2023-03-07T07:40:34;99445.53;;;22.78;35.07
57572;BME280;44459;43.522;24.470;2023-03-07T07:42:59;99444.59;;;23.40;34.63
57572;BME280;44459;43.522;24.470;2023-03-07T07:45:24;99440.19;;;23.98;33.88
57572;BME280;44459;43.522;24.470;2023-03-07T07:47:50;99442.13;;;24.11;32.45
57572;BME280;44459;43.522;24.470;2023-03-07T07:50:17;99439.88;;;24.19;32.19
57572;BME280;44459;43.522;24.470;2023-03-07T07:52:43;99441.19;;;24.54;31.79
57572;BME280;44459;43.522;24.470;2023-03-07T07:55:09;99439.97;;;24.60;32.47
57572;BME280;44459;43.522;24.470;2023-03-07T07:57:35;99448.16;;;24.58;29.58
57572;BME280;44459;43.522;24.470;2023-03-07T08:00:03;99451.97;;;24.82;28.87
57572;BME280;44459;43.522;24.470;2023-03-07T08:02:28;99439.47;;;24.95;28.28
57572;BME280;44459;43.522;24.470;2023-03-07T08:04:55;99451.84;;;24.43;28.44
57572;BME280;44459;43.522;24.470;2023-03-07T08:07:20;99440.44;;;24.52;27.97
57572;BME280;44459;43.522;24.470;2023-03-07T08:09:46;99444.78;;;24.26;27.65
57572;BME280;44459;43.522;24.470;2023-03-07T08:12:11;99448.81;;;24.76;28.01
57572;BME280;44459;43.522;24.470;2023-03-07T08:14:38;99443.41;;;24.33;26.98
57572;BME280;44459;43.522;24.470;2023-03-07T08:17:03;99437.69;;;23.95;27.73
57572;BME280;44459;43.522;24.470;2023-03-07T08:19:29;99444.44;;;24.02;27.89
57572;BME280;44459;43.522;24.470;2023-03-07T08:21:54;99445.63;;;24.69;26.52
57572;BME280;44459;43.522;24.470;2023-03-07T08:24:20;99437.91;;;24.91;26.62
57572;BME280;44459;43.522;24.470;2023-03-07T08:26:45;99440.00;;;23.87;27.21
57572;BME280;44459;43.522;24.470;2023-03-07T08:29:11;99446.38;;;23.41;27.63
57572;BME280;44459;43.522;24.470;2023-03-07T08:31:37;99442.41;;;22.37;28.81
57572;BME280;44459;43.522;24.470;2023-03-07T08:34:02;99439.97;;;21.48;30.79
57572;BME280;44459;43.522;24.470;2023-03-07T08:36:28;99435.94;;;22.41;29.99
57572;BME280;44459;43.522;24.470;2023-03-07T08:38:53;99439.69;;;21.18;31.35
57572;BME280;44459;43.522;24.470;2023-03-07T08:41:20;99434.88;;;18.88;35.34
57572;BME280;44459;43.522;24.470;2023-03-07T08:43:47;99437.47;;;17.74;37.65
57572;BME280;44459;43.522;24.470;2023-03-07T08:46:12;99443.31;;;16.80;39.93
57572;BME280;44459;43.522;24.470;2023-03-07T08:48:38;99450.00;;;16.65;40.50
57572;BME280;44459;43.522;24.470;2023-03-07T08:51:10;99433.97;;;16.06;41.98
57572;BME280;44459;43.522;24.470;2023-03-07T08:53:36;99438.16;;;15.84;42.99
57572;BME280;44459;43.522;24.470;2023-03-07T08:56:06;99429.34;;;15.51;43.75
57572;BME280;44459;43.522;24.470;2023-03-07T08:58:32;99428.53;;;15.13;44.87
57572;BME280;44459;43.522;24.470;2023-03-07T09:00:57;99426.88;;;15.08;44.05
57572;BME280;44459;43.522;24.470;2023-03-07T09:03:23;99421.72;;;15.02;45.13
57572;BME280;44459;43.522;24.470;2023-03-07T09:05:48;99415.78;;;14.91;45.50
57572;BME280;44459;43.522;24.470;2023-03-07T09:08:14;99426.16;;;15.00;45.91
57572;BME280;44459;43.522;24.470;2023-03-07T09:10:39;99419.50;;;14.84;45.46
57572;BME280;44459;43.522;24.470;2023-03-07T09:13:05;99416.78;;;14.86;45.03
57572;BME280;44459;43.522;24.470;2023-03-07T09:15:30;99414.91;;;14.91;47.06
57572;BME280;44459;43.522;24.470;2023-03-07T09:17:56;99412.41;;;14.85;46.56
57572;BME280;44459;43.522;24.470;2023-03-07T09:20:21;99422.06;;;14.87;47.23
57572;BME280;44459;43.522;24.470;2023-03-07T09:22:47;99418.63;;;14.84;46.55
57572;BME280;44459;43.522;24.470;2023-03-07T09:25:13;99418.47;;;14.90;46.82
57572;BME280;44459;43.522;24.470;2023-03-07T09:27:38;99421.72;;;15.01;46.29
57572;BME280;44459;43.522;24.470;2023-03-07T09:30:04;99417.44;;;14.95;45.12
57572;BME280;44459;43.522;24.470;2023-03-07T09:32:33;99425.28;;;15.00;45.08
57572;BME280;44459;43.522;24.470;2023-03-07T09:34:58;99415.69;;;14.94;45.96
57572;BME280;44459;43.522;24.470;2023-03-07T09:37:24;99413.31;;;14.84;46.32
57572;BME280;44459;43.522;24.470;2023-03-07T09:39:49;99405.25;;;14.87;47.04
57572;BME280;44459;43.522;24.470;2023-03-07T09:42:25;99405.81;;;14.99;47.30
57572;BME280;44459;43.522;24.470;2023-03-07T09:53:48;99399.84;;;15.25;44.85
57572;BME280;44459;43.522;24.470;2023-03-07T09:56:21;99390.69;;;15.35;44.36
57572;BME280;44459;43.522;24.470;2023-03-07T09:58:54;99393.47;;;15.31;44.56
57572;BME280;44459;43.522;24.470;2023-03-07T10:01:25;99388.84;;;15.39;44.60
57572;BME280;44459;43.522;24.470;2023-03-07T10:03:56;99389.69;;;15.41;43.47
57572;BME280;44459;43.522;24.470;2023-03-07T10:06:37;99388.84;;;15.39;43.54
57572;BME280;44459;43.522;24.470;2023-03-07T10:09:05;99389.69;;;15.41;43.21
57572;BME280;44459;43.522;24.470;2023-03-07T10:16:51;99378.81;;;15.50;43.73
57572;BME280;44459;43.522;24.470;2023-03-07T10:25:25;99361.97;;;15.80;42.37
57572;BME280;44459;43.522;24.470;2023-03-07T10:30:45;99373.16;;;15.93;43.03
57572;BME280;44459;43.522;24.470;2023-03-07T10:33:17;99358.69;;;16.01;41.00
57572;BME280;44459;43.522;24.470;2023-03-07T10:35:49;99352.16;;;16.11;41.03
57572;BME280;44459;43.522;24.470;2023-03-07T10:40:56;99347.09;;;16.32;39.16
57572;BME280;44459;43.522;24.470;2023-03-07T10:43:30;99344.31;;;16.35;39.21
57572;BME280;44459;43.522;24.470;2023-03-07T10:46:00;99341.75;;;16.32;39.47
57572;BME280;44459;43.522;24.470;2023-03-07T10:48:31;99324.94;;;16.31;40.68
57572;BME280;44459;43.522;24.470;2023-03-07T10:51:08;99338.88;;;16.39;40.38
57572;BME280;44459;43.522;24.470;2023-03-07T10:53:36;99330.00;;;16.39;38.73
57572;BME280;44459;43.522;24.470;2023-03-07T10:56:15;99320.41;;;16.33;39.72
57572;BME280;44459;43.522;24.470;2023-03-07T10:59:00;99324.00;;;16.32;38.88
57572;BME280;44459;43.522;24.470;2023-03-07T11:01:26;99314.13;;;16.36;38.69
57572;BME280;44459;43.522;24.470;2023-03-07T11:06:40;99311.94;;;16.48;37.08
57572;BME280;44459;43.522;24.470;2023-03-07T11:09:16;99304.03;;;16.45;38.83
57572;BME280;44459;43.522;24.470;2023-03-07T11:11:59;99294.97;;;16.51;38.44
57572;BME280;44459;43.522;24.470;2023-03-07T11:14:26;99293.69;;;16.64;39.69
57572;BME280;44459;43.522;24.470;2023-03-07T11:19:40;99283.38;;;16.80;39.53
57572;BME280;44459;43.522;24.470;2023-03-07T11:22:16;99283.22;;;16.84;38.58
57572;BME280;44459;43.522;24.470;2023-03-07T11:24:48;99281.28;;;16.89;37.61
57572;BME280;44459;43.522;24.470;2023-03-07T11:27:20;99271.53;;;16.88;37.99
57572;BME280;44459;43.522;24.470;2023-03-07T11:43:25;99262.88;;;17.31;38.59
57572;BME280;44459;43.522;24.470;2023-03-07T11:46:06;99252.59;;;17.21;39.55
57572;BME280;44459;43.522;24.470;2023-03-07T11:51:58;99251.38;;;17.29;38.88
57572;BME280;44459;43.522;24.470;2023-03-07T12:09:20;99231.56;;;17.11;39.86
57572;BME280;44459;43.522;24.470;2023-03-07T12:12:05;99227.75;;;17.19;38.09
57572;BME280;44459;43.522;24.470;2023-03-07T12:20:25;99222.09;;;17.28;37.98
57572;BME280;44459;43.522;24.470;2023-03-07T12:23:05;99228.06;;;17.34;38.38
57572;BME280;44459;43.522;24.470;2023-03-07T12:25:36;99218.38;;;17.32;38.59
57572;BME280;44459;43.522;24.470;2023-03-07T12:36:32;99213.25;;;17.26;37.96
57572;BME280;44459;43.522;24.470;2023-03-07T12:44:28;99196.81;;;17.38;38.60
57572;BME280;44459;43.522;24.470;2023-03-07T12:47:08;99204.19;;;17.31;36.31
57572;BME280;44459;43.522;24.470;2023-03-07T12:52:43;99208.28;;;17.17;37.75
57572;BME280;44459;43.522;24.470;2023-03-07T12:55:19;99198.66;;;17.13;38.71
57572;BME280;44459;43.522;24.470;2023-03-07T13:06:28;99204.97;;;17.10;39.43
57572;BME280;44459;43.522;24.470;2023-03-07T13:08:58;99207.13;;;17.00;39.83
57572;BME280;44459;43.522;24.470;2023-03-07T13:11:27;99216.19;;;16.95;39.92
57572;BME280;44459;43.522;24.470;2023-03-07T13:16:41;99201.06;;;16.95;40.21
57572;BME280;44459;43.522;24.470;2023-03-07T13:22:02;99210.94;;;16.93;40.65
57572;BME280;44459;43.522;24.470;2023-03-07T13:26:55;99207.75;;;16.82;40.77
57572;BME280;44459;43.522;24.470;2023-03-07T13:38:01;99200.69;;;16.81;39.62
57572;BME280;44459;43.522;24.470;2023-03-07T13:40:50;99202.22;;;16.88;40.34
57572;BME280;44459;43.522;24.470;2023-03-07T13:45:53;99201.88;;;16.97;38.75
57572;BME280;44459;43.522;24.470;2023-03-07T13:56:19;99192.63;;;17.31;37.84
57572;BME280;44459;43.522;24.470;2023-03-07T14:01:34;99187.88;;;17.62;38.62
57572;BME280;44459;43.522;24.470;2023-03-07T14:04:13;99183.13;;;18.14;36.86
57572;BME280;44459;43.522;24.470;2023-03-07T14:06:54;99185.63;;;19.58;34.14
57572;BME280;44459;43.522;24.470;2023-03-07T14:10:08;99195.59;;;20.81;32.30
57572;BME280;44459;43.522;24.470;2023-03-07T14:12:56;99187.59;;;21.46;30.92
57572;BME280;44459;43.522;24.470;2023-03-07T14:21:29;99193.47;;;20.70;32.45
57572;BME280;44459;43.522;24.470;2023-03-07T14:27:12;99204.19;;;20.70;31.76
57572;BME280;44459;43.522;24.470;2023-03-07T14:29:49;99197.78;;;20.02;32.94
57572;BME280;44459;43.522;24.470;2023-03-07T14:32:28;99193.44;;;19.63;33.67
57572;BME280;44459;43.522;24.470;2023-03-07T14:34:54;99200.94;;;19.36;34.02
57572;BME280;44459;43.522;24.470;2023-03-07T14:37:23;99204.44;;;19.18;34.81
57572;BME280;44459;43.522;24.470;2023-03-07T14:40:25;99198.69;;;18.46;36.51
57572;BME280;44459;43.522;24.470;2023-03-07T14:43:26;99202.38;;;17.78;37.31
57572;BME280;44459;43.522;24.470;2023-03-07T14:48:44;99207.47;;;17.15;39.76
57572;BME280;44459;43.522;24.470;2023-03-07T14:51:23;99204.25;;;16.80;41.05
57572;BME280;44459;43.522;24.470;2023-03-07T14:53:50;99209.03;;;16.72;40.85
57572;BME280;44459;43.522;24.470;2023-03-07T14:56:25;99211.03;;;16.66;41.29
57572;BME280;44459;43.522;24.470;2023-03-07T14:58:55;99215.78;;;16.56;41.45
57572;BME280;44459;43.522;24.470;2023-03-07T15:01:22;99203.88;;;16.40;41.62
57572;BME280;44459;43.522;24.470;2023-03-07T15:03:53;99200.78;;;16.27;41.96
57572;BME280;44459;43.522;24.470;2023-03-07T15:06:21;99192.06;;;16.22;42.16
57572;BME280;44459;43.522;24.470;2023-03-07T15:08:47;99195.81;;;16.17;42.18
57572;BME280;44459;43.522;24.470;2023-03-07T15:11:33;99194.31;;;16.08;42.21
57572;BME280;44459;43.522;24.470;2023-03-07T15:14:05;99201.50;;;16.04;43.09
57572;BME280;44459;43.522;24.470;2023-03-07T15:16:46;99193.63;;;16.01;42.67
57572;BME280;44459;43.522;24.470;2023-03-07T15:22:00;99200.91;;;15.96;44.15
57572;BME280;44459;43.522;24.470;2023-03-07T15:24:38;99204.72;;;15.88;44.68
57572;BME280;44459;43.522;24.470;2023-03-07T15:27:08;99194.72;;;15.68;45.83
57572;BME280;44459;43.522;24.470;2023-03-07T15:29:36;99207.69;;;15.49;46.29